KMNN

Marion Municipal Airport

Marion, Ohio, USA
METAR KMNN 172103Z AUTO 19004KT 3SM -SN BR FEW006 BKN021 OVC035 M01/M02 A2999 RMK AO2 P0000 T10061017
Observed Flight Rules
Feb-17 @ 21:03 UTC (28 minutes ago) Marginal Visual Flight Rules
Wind Visibility Clouds Conditions
190° at 4 knots 3 miles
  • Few at 600' AGL
  • Broken at 2,100' AGL
  • Overcast at 3,500' AGL
  • Light Snow
  • Mist
Temperatures Readings Precipitation
Current -1°C / 30°F
Dewpoint -2°C / 28°F
Humidity 93%
Altimeter 29.99" Hg
Pressure 1016 hPa
Elevation 301
Current Rain 0.005
METAR KMNN 172103Z AUTO 19004KT 3SM -SN BR FEW006 BKN021 OVC035 M01/M02 A2999 RMK AO2 P0000 T10061017
Observed Flight Rules
Feb-17 @ 21:03 UTC
(28 minutes ago)
MVFR
Wind Visibility
190° at 4 knots 3 miles
Clouds
  • Few at 600' AGL
  • Broken at 2,100' AGL
  • Overcast at 3,500' AGL
Conditions
  • Light Snow
  • Mist
Temperature Dewpoint
-1°C / 30°F -2°C / 28°F
Humidity Altimeter Pressure
93% 29.99" Hg 1016 hPa
Current Rain
0.005